Аэропорт: Бесовец. Петрозаводск

ICAO: ULPB

METAR:
2018/09/23 11:00
ULPB 231100Z 22006MPS 130V250 9999 SCT033 15/06 Q0997 R19/29//50 NOSIG RMK QFE744/0992
METAR:
Информация по данной станции не доступна